Time;durP1;ratioP1;P1;durP2;ratioP2;P2;SDS_P1;SDS_P2;PMS_P1;PMS_P2;Temp;Humidity;BMP_temperature;BMP_pressure;BME280_temperature;BME280_humidity;BME280_pressure;Samples;Min_cycle;Max_cycle;Signal;HPM_P1;HPM_P2
2021/04/30 00:02:13;;;;;;;3.53;1.75;;;16.80;57.10;;;;;;6117512;29;20035;-85
2021/04/30 00:05:14;;;;;;;4.55;2.05;;;16.80;57.80;;;;;;6132698;29;20039;-84
2021/04/30 00:08:17;;;;;;;4.68;2.30;;;16.80;57.50;;;;;;6133795;29;20031;-85
2021/04/30 00:11:20;;;;;;;17.58;2.08;;;16.80;57.80;;;;;;6117767;29;20058;-86
2021/04/30 00:14:26;;;;;;;7.32;1.92;;;16.80;57.90;;;;;;6136662;29;20038;-86
2021/04/30 00:17:28;;;;;;;5.38;2.47;;;16.70;58.00;;;;;;6123576;29;20032;-87
2021/04/30 00:20:30;;;;;;;2.88;1.92;;;16.70;58.20;;;;;;6126673;29;20036;-85
2021/04/30 00:23:33;;;;;;;9.30;2.35;;;16.70;58.30;;;;;;6124239;29;20039;-87
2021/04/30 00:26:35;;;;;;;3.50;2.20;;;16.70;58.40;;;;;;6132841;29;20376;-87
2021/04/30 00:29:36;;;;;;;7.07;2.60;;;16.70;58.40;;;;;;6115440;29;20032;-86
2021/04/30 00:32:37;;;;;;;11.20;2.45;;;16.60;58.40;;;;;;6131212;29;20047;-86
2021/04/30 00:35:39;;;;;;;5.90;2.75;;;16.60;58.40;;;;;;6114908;29;20115;-86
2021/04/30 00:38:41;;;;;;;3.47;2.42;;;16.60;58.40;;;;;;6132367;29;20348;-86
2021/04/30 00:41:43;;;;;;;4.05;2.20;;;16.50;58.30;;;;;;6114651;29;20095;-86
2021/04/30 00:44:45;;;;;;;4.57;2.15;;;16.50;58.30;;;;;;6102479;29;20114;-86
2021/04/30 00:47:46;;;;;;;2.97;1.92;;;16.50;58.40;;;;;;6115534;29;20067;-85
2021/04/30 00:50:48;;;;;;;8.95;2.42;;;16.50;58.40;;;;;;6115776;29;20359;-85
2021/04/30 00:53:49;;;;;;;15.48;3.17;;;16.50;58.30;;;;;;6117729;29;20024;-85
2021/04/30 00:56:51;;;;;;;4.10;2.53;;;16.50;58.20;;;;;;6113933;29;20043;-86
2021/04/30 00:59:53;;;;;;;6.85;2.38;;;16.60;58.30;;;;;;6114565;29;20046;-85
2021/04/30 01:02:55;;;;;;;6.53;2.60;;;16.60;58.30;;;;;;6114445;29;20062;-85
2021/04/30 01:05:55;;;;;;;4.43;2.20;;;16.60;58.20;;;;;;6114178;29;20481;-85
2021/04/30 01:08:56;;;;;;;5.82;2.08;;;16.70;58.30;;;;;;6114864;29;20039;-85
2021/04/30 01:11:58;;;;;;;9.55;2.65;;;16.70;58.30;;;;;;6115578;29;20054;-84
2021/04/30 01:14:59;;;;;;;4.38;2.40;;;16.80;58.30;;;;;;6130981;29;20035;-84
2021/04/30 01:18:01;;;;;;;4.15;2.00;;;16.70;58.30;;;;;;6114867;29;20027;-86
2021/04/30 01:21:03;;;;;;;5.45;2.53;;;16.70;58.30;;;;;;6129981;29;20175;-86
2021/04/30 01:24:06;;;;;;;4.07;2.28;;;16.70;58.30;;;;;;6131146;29;20083;-85
2021/04/30 01:27:07;;;;;;;2.15;1.88;;;16.70;58.40;;;;;;6114171;29;20091;-85
2021/04/30 01:30:18;;;;;;;2.53;2.15;;;16.70;58.40;;;;;;6114362;29;20042;-85
2021/04/30 01:33:22;;;;;;;3.70;1.95;;;16.60;58.50;;;;;;6114387;29;20460;-86
2021/04/30 01:36:23;;;;;;;3.83;2.28;;;16.60;58.60;;;;;;6115925;29;20122;-85
2021/04/30 01:39:24;;;;;;;6.07;3.03;;;16.60;58.70;;;;;;6116721;29;20070;-85
2021/04/30 01:42:25;;;;;;;6.65;2.47;;;16.70;58.80;;;;;;6114359;29;20471;-85
2021/04/30 01:45:32;;;;;;;6.35;2.70;;;16.70;58.70;;;;;;6115061;29;20115;-86
2021/04/30 01:48:35;;;;;;;4.35;2.80;;;16.70;58.60;;;;;;6130223;29;20044;-86
2021/04/30 01:51:37;;;;;;;9.32;2.90;;;16.80;58.50;;;;;;6114064;29;20423;-85
2021/04/30 01:54:38;;;;;;;2.80;2.38;;;16.70;58.40;;;;;;6114124;29;20039;-84
2021/04/30 01:57:45;;;;;;;5.45;2.50;;;16.80;58.50;;;;;;6130547;29;20044;-85
2021/04/30 02:00:46;;;;;;;8.75;2.65;;;16.70;58.50;;;;;;6098890;29;20130;-85
2021/04/30 02:03:47;;;;;;;6.03;2.80;;;16.80;58.50;;;;;;6118344;29;20543;-86
2021/04/30 02:06:49;;;;;;;6.45;2.83;;;16.70;58.50;;;;;;6120227;29;20043;-85
2021/04/30 02:09:50;;;;;;;5.80;3.10;;;16.80;58.50;;;;;;6137250;29;20059;-85
2021/04/30 02:12:52;;;;;;;3.47;2.35;;;16.80;58.50;;;;;;6122932;29;20551;-85
2021/04/30 02:15:55;;;;;;;3.15;1.98;;;16.80;58.50;;;;;;6108700;29;20100;-85
2021/04/30 02:18:56;;;;;;;4.53;2.55;;;16.80;58.60;;;;;;6122790;29;20115;-85
2021/04/30 02:21:57;;;;;;;8.70;2.53;;;16.80;58.90;;;;;;6120636;29;20110;-85
2021/04/30 02:24:58;;;;;;;3.92;2.20;;;16.80;59.20;;;;;;6120395;29;20040;-84
2021/04/30 02:28:01;;;;;;;4.00;2.53;;;16.70;59.30;;;;;;6119950;29;20031;-85
2021/04/30 02:31:02;;;;;;;5.00;2.35;;;16.80;59.50;;;;;;6103832;29;20049;-85
2021/04/30 02:34:03;;;;;;;4.05;2.65;;;16.80;59.60;;;;;;6120221;29;20028;-85
2021/04/30 02:37:05;;;;;;;5.10;2.40;;;16.80;59.50;;;;;;6118963;29;20349;-84
2021/04/30 02:40:08;;;;;;;4.55;2.63;;;16.80;59.60;;;;;;6134101;29;20066;-85
2021/04/30 02:43:12;;;;;;;6.25;2.72;;;16.80;59.60;;;;;;6117963;29;20443;-84
2021/04/30 02:46:13;;;;;;;7.93;2.85;;;16.80;59.60;;;;;;6118441;29;20070;-85
2021/04/30 02:49:17;;;;;;;5.68;2.42;;;16.80;59.60;;;;;;6134504;29;20076;-84
2021/04/30 02:52:18;;;;;;;3.47;1.90;;;16.80;59.60;;;;;;6118131;29;20032;-84
2021/04/30 02:55:21;;;;;;;5.68;2.58;;;16.90;59.60;;;;;;6119513;29;20038;-85
2021/04/30 02:58:26;;;;;;;9.32;2.90;;;16.90;59.60;;;;;;6117096;29;20055;-84
2021/04/30 03:01:28;;;;;;;5.63;2.70;;;17.00;59.50;;;;;;6120129;29;20414;-86
2021/04/30 03:04:29;;;;;;;5.15;3.20;;;16.90;59.20;;;;;;6137943;29;20030;-85
2021/04/30 03:07:30;;;;;;;4.22;2.70;;;16.90;59.00;;;;;;6121804;29;20031;-85
2021/04/30 03:10:32;;;;;;;3.92;2.60;;;17.00;59.00;;;;;;6138925;29;20034;-86
2021/04/30 03:13:34;;;;;;;7.25;2.95;;;17.00;58.90;;;;;;6103296;29;20043;-85
2021/04/30 03:16:36;;;;;;;5.13;2.33;;;17.00;58.80;;;;;;6119665;29;20068;-85
2021/04/30 03:19:37;;;;;;;7.20;2.83;;;17.00;59.00;;;;;;6117674;29;20027;-85
2021/04/30 03:22:38;;;;;;;4.63;2.58;;;17.10;59.10;;;;;;6134507;29;20039;-84
2021/04/30 03:25:40;;;;;;;12.02;2.78;;;16.90;59.10;;;;;;6135026;29;20028;-85
2021/04/30 03:28:41;;;;;;;6.22;3.50;;;16.90;59.10;;;;;;6137483;29;20042;-85
2021/04/30 03:31:44;;;;;;;5.47;3.00;;;17.00;59.20;;;;;;6128375;29;20028;-87
2021/04/30 03:34:45;;;;;;;4.63;2.85;;;17.00;59.30;;;;;;6148670;29;20032;-86
2021/04/30 03:37:48;;;;;;;4.85;2.80;;;17.00;59.20;;;;;;6153221;29;20031;-86
2021/04/30 03:40:49;;;;;;;4.00;2.70;;;17.00;59.40;;;;;;6122905;29;20039;-84
2021/04/30 03:43:51;;;;;;;5.07;2.65;;;17.00;59.50;;;;;;6135479;29;20059;-85
2021/04/30 03:46:53;;;;;;;4.50;2.50;;;17.00;59.70;;;;;;6101790;29;20046;-86
2021/04/30 03:49:54;;;;;;;6.55;2.95;;;16.90;59.90;;;;;;6117434;29;20475;-85
2021/04/30 03:52:55;;;;;;;4.60;2.67;;;16.90;60.00;;;;;;6138236;29;20024;-86
2021/04/30 03:55:56;;;;;;;5.50;2.80;;;16.90;60.00;;;;;;6121534;29;20031;-86
2021/04/30 03:58:57;;;;;;;4.80;3.17;;;16.90;60.10;;;;;;6115061;29;20090;-86
2021/04/30 04:01:58;;;;;;;5.38;3.00;;;16.90;60.10;;;;;;6117248;29;20110;-86
2021/04/30 04:04:59;;;;;;;4.90;2.47;;;16.80;60.20;;;;;;6116532;29;20454;-85
2021/04/30 04:08:01;;;;;;;4.85;2.85;;;16.80;60.70;;;;;;6117295;29;20474;-86
2021/04/30 04:11:02;;;;;;;12.13;3.17;;;16.80;61.10;;;;;;6120671;29;20451;-84
2021/04/30 04:14:03;;;;;;;5.85;3.58;;;16.80;61.50;;;;;;6141707;29;20028;-84
2021/04/30 04:17:05;;;;;;;4.82;3.20;;;16.80;61.90;;;;;;6142036;29;20043;-85
2021/04/30 04:20:07;;;;;;;4.90;2.53;;;16.70;62.10;;;;;;6133795;29;20584;-84
2021/04/30 04:23:09;;;;;;;6.50;2.75;;;16.70;62.50;;;;;;6117107;29;20047;-85
2021/04/30 04:26:11;;;;;;;3.75;2.30;;;16.70;62.80;;;;;;6131472;29;20448;-86
2021/04/30 04:29:14;;;;;;;3.78;2.58;;;16.80;63.10;;;;;;6116033;29;20031;-86
2021/04/30 04:32:15;;;;;;;3.90;2.90;;;16.70;63.30;;;;;;6117361;29;20058;-86
2021/04/30 04:35:17;;;;;;;4.57;2.35;;;16.70;63.60;;;;;;6115704;29;20039;-85
2021/04/30 04:38:18;;;;;;;3.20;2.35;;;16.60;63.90;;;;;;6131653;29;20123;-86
2021/04/30 04:41:19;;;;;;;6.00;2.35;;;16.60;64.20;;;;;;6115412;29;20442;-85
2021/04/30 04:44:20;;;;;;;3.67;2.63;;;16.70;64.40;;;;;;6099627;29;20035;-86
2021/04/30 04:47:21;;;;;;;8.13;2.40;;;16.60;64.50;;;;;;6115150;29;20062;-85
2021/04/30 04:50:23;;;;;;;4.95;2.92;;;16.60;64.70;;;;;;6115405;29;20031;-85
2021/04/30 04:53:24;;;;;;;3.55;1.98;;;16.70;64.70;;;;;;6131835;29;20023;-85
2021/04/30 04:56:27;;;;;;;4.03;2.45;;;16.60;64.70;;;;;;6115634;29;20118;-84
2021/04/30 04:59:28;;;;;;;3.03;1.90;;;16.70;64.60;;;;;;6133531;29;20055;-84
2021/04/30 05:02:29;;;;;;;3.40;2.40;;;16.70;64.60;;;;;;6133796;29;20028;-84
2021/04/30 05:05:30;;;;;;;4.63;2.38;;;16.80;64.50;;;;;;6135347;29;20106;-84
2021/04/30 05:08:31;;;;;;;9.02;2.35;;;16.80;64.30;;;;;;6102318;29;20031;-85
2021/04/30 05:11:33;;;;;;;3.67;2.42;;;16.90;64.30;;;;;;6119565;29;20090;-86
2021/04/30 05:14:34;;;;;;;4.40;2.38;;;16.90;64.20;;;;;;6120463;29;20027;-86
2021/04/30 05:17:36;;;;;;;11.23;3.47;;;16.90;64.20;;;;;;6120592;29;20060;-85
2021/04/30 05:20:37;;;;;;;8.18;2.47;;;16.90;64.30;;;;;;6132840;29;20036;-86
2021/04/30 05:23:39;;;;;;;3.40;2.15;;;16.90;64.20;;;;;;6136846;29;20044;-87
2021/04/30 05:26:41;;;;;;;3.92;2.25;;;16.90;64.20;;;;;;6137469;29;20031;-84
2021/04/30 05:34:08;;;;;;;3.58;2.35;;;16.90;63.90;;;;;;6133057;29;20040;-85
2021/04/30 05:37:12;;;;;;;5.38;2.22;;;16.90;63.70;;;;;;6116866;29;20046;-83
2021/04/30 05:40:15;;;;;;;6.93;3.20;;;17.00;63.70;;;;;;6117156;29;20036;-84
2021/04/30 05:43:18;;;;;;;2.35;1.77;;;17.00;63.50;;;;;;6117200;29;20042;-83
2021/04/30 05:46:19;;;;;;;11.82;2.72;;;17.10;63.50;;;;;;6118288;29;20035;-84
2021/04/30 05:49:26;;;;;;;5.38;2.60;;;17.10;63.40;;;;;;6118448;29;20032;-85
2021/04/30 05:52:27;;;;;;;3.65;2.55;;;17.20;63.20;;;;;;6134234;29;20031;-84
2021/04/30 05:55:31;;;;;;;4.75;2.53;;;17.20;62.90;;;;;;6119981;29;20028;-85
2021/04/30 05:58:35;;;;;;;15.48;2.67;;;17.20;63.00;;;;;;6122364;29;20075;-84
2021/04/30 06:01:37;;;;;;;6.38;2.92;;;17.20;62.90;;;;;;6076953;29;20047;-84
2021/04/30 06:04:38;;;;;;;8.93;3.90;;;17.10;62.90;;;;;;6087738;29;20040;-84
2021/04/30 06:07:40;;;;;;;11.00;2.47;;;17.10;62.90;;;;;;6099382;29;20029;-82
2021/04/30 06:10:42;;;;;;;6.80;2.92;;;17.10;63.00;;;;;;6091655;29;20028;-85
2021/04/30 06:13:43;;;;;;;12.32;2.72;;;17.10;63.10;;;;;;6097786;29;20164;-89
2021/04/30 06:16:45;;;;;;;13.20;3.22;;;17.20;63.00;;;;;;6104173;29;20191;-88
2021/04/30 06:19:47;;;;;;;3.08;2.13;;;17.20;62.90;;;;;;6095405;29;20041;-88
2021/04/30 06:22:48;;;;;;;5.20;2.45;;;17.20;62.60;;;;;;6060888;29;20044;-87
2021/04/30 06:25:49;;;;;;;11.15;2.72;;;17.20;62.70;;;;;;6067712;29;20100;-85
2021/04/30 06:28:50;;;;;;;11.45;2.53;;;17.20;62.70;;;;;;6080270;29;20040;-88
2021/04/30 06:31:51;;;;;;;11.82;2.75;;;17.20;62.70;;;;;;6087215;29;20076;-85
2021/04/30 06:34:52;;;;;;;3.75;2.35;;;17.20;62.80;;;;;;6070813;29;20037;-84
2021/04/30 06:37:53;;;;;;;6.55;2.75;;;17.20;62.80;;;;;;6082121;29;20401;-85
2021/04/30 06:40:55;;;;;;;4.78;2.90;;;17.20;62.60;;;;;;6082126;29;20045;-84
2021/04/30 06:43:56;;;;;;;3.35;2.15;;;17.30;62.60;;;;;;6081921;29;20427;-85
2021/04/30 06:46:58;;;;;;;10.15;3.92;;;17.40;62.50;;;;;;6090137;29;20428;-86
2021/04/30 06:49:59;;;;;;;8.45;4.55;;;17.30;62.10;;;;;;6110080;29;20035;-87
2021/04/30 06:53:01;;;;;;;7.93;4.45;;;17.30;61.70;;;;;;6085393;29;20084;-85
2021/04/30 06:56:03;;;;;;;6.03;3.40;;;17.20;61.30;;;;;;6105680;29;20036;-86
2021/04/30 06:59:06;;;;;;;9.98;4.45;;;17.10;60.90;;;;;;6104923;29;20063;-86
2021/04/30 07:02:07;;;;;;;7.53;3.42;;;17.00;60.90;;;;;;6102796;29;20472;-84
2021/04/30 07:05:08;;;;;;;15.27;3.70;;;16.90;60.70;;;;;;6087919;29;20047;-86
2021/04/30 07:08:10;;;;;;;7.13;4.03;;;16.80;60.50;;;;;;6100542;29;20047;-85
2021/04/30 07:11:12;;;;;;;9.13;4.22;;;16.80;60.70;;;;;;6101466;29;20036;-85
2021/04/30 07:14:13;;;;;;;15.98;4.70;;;16.60;60.80;;;;;;6102081;29;20028;-85
2021/04/30 07:17:14;;;;;;;28.27;6.93;;;16.60;61.20;;;;;;6097627;29;20036;-83
2021/04/30 07:20:17;;;;;;;15.80;5.68;;;16.60;61.40;;;;;;6098472;29;20032;-84
2021/04/30 07:23:20;;;;;;;9.10;4.93;;;16.60;61.40;;;;;;6127898;29;20039;-84
2021/04/30 07:26:21;;;;;;;8.32;4.60;;;16.60;61.20;;;;;;6069931;29;20068;-84
2021/04/30 07:29:22;;;;;;;10.18;4.57;;;16.50;61.30;;;;;;6086980;29;20472;-85
2021/04/30 07:32:24;;;;;;;10.55;4.70;;;16.40;61.50;;;;;;6088920;29;20375;-86
2021/04/30 07:35:25;;;;;;;11.15;5.63;;;16.30;61.90;;;;;;6086923;29;20035;-87
2021/04/30 07:38:28;;;;;;;11.27;5.53;;;16.30;62.00;;;;;;6090698;29;20403;-85
2021/04/30 07:41:29;;;;;;;14.32;4.78;;;16.20;62.20;;;;;;6093832;29;20035;-87
2021/04/30 07:44:30;;;;;;;5.78;3.63;;;16.20;62.60;;;;;;6090714;29;20424;-86
2021/04/30 07:47:32;;;;;;;7.22;3.80;;;16.20;62.80;;;;;;6105823;29;20124;-86
2021/04/30 07:50:33;;;;;;;5.28;2.78;;;16.20;62.80;;;;;;6101707;29;20035;-84
2021/04/30 07:53:34;;;;;;;10.02;2.80;;;16.30;62.70;;;;;;6116320;29;20084;-87
2021/04/30 07:56:36;;;;;;;8.10;2.38;;;16.20;62.40;;;;;;6088885;29;20024;-86
2021/04/30 07:59:39;;;;;;;4.05;1.85;;;16.20;62.50;;;;;;6116167;29;20067;-86
2021/04/30 08:02:40;;;;;;;7.97;2.40;;;16.10;62.50;;;;;;6114272;29;20059;-86
2021/04/30 08:05:43;;;;;;;6.97;2.33;;;16.10;62.50;;;;;;6115107;29;20297;-84
2021/04/30 08:08:44;;;;;;;3.40;2.28;;;16.10;62.80;;;;;;6116776;29;20070;-86
2021/04/30 08:11:47;;;;;;;3.50;1.98;;;16.00;62.90;;;;;;6116913;29;20035;-83
2021/04/30 08:14:48;;;;;;;2.13;1.60;;;16.00;63.00;;;;;;6116224;29;20135;-83
2021/04/30 08:17:49;;;;;;;2.65;1.70;;;16.00;63.00;;;;;;6122653;29;20459;-84
2021/04/30 08:20:51;;;;;;;3.17;1.42;;;16.00;62.60;;;;;;6117590;29;20043;-84
2021/04/30 08:23:52;;;;;;;22.10;2.13;;;16.00;62.70;;;;;;6116535;29;20032;-84
2021/04/30 08:26:53;;;;;;;4.80;2.08;;;16.00;62.50;;;;;;6117541;29;20379;-83
2021/04/30 08:29:55;;;;;;;4.60;2.58;;;16.10;62.80;;;;;;6116174;29;20039;-85
2021/04/30 08:32:57;;;;;;;6.10;2.72;;;16.10;62.70;;;;;;6130910;29;20051;-84
2021/04/30 08:35:58;;;;;;;119.40;11.90;;;16.20;62.60;;;;;;6099098;29;20099;-84
2021/04/30 08:38:59;;;;;;;4.70;2.15;;;16.20;62.40;;;;;;6115207;29;20051;-84
2021/04/30 08:42:02;;;;;;;4.32;2.45;;;16.20;62.30;;;;;;6116642;29;20407;-85
2021/04/30 08:45:07;;;;;;;4.22;2.38;;;16.10;62.70;;;;;;6116350;29;20059;-85
2021/04/30 08:48:13;;;;;;;4.90;1.48;;;15.80;63.00;;;;;;6115449;29;20047;-85
2021/04/30 08:51:14;;;;;;;7.55;1.77;;;15.70;63.70;;;;;;6117509;29;20038;-85
2021/04/30 08:54:34;;;;;;;5.22;2.05;;;15.60;63.50;;;;;;6100256;29;20055;-86
2021/04/30 08:57:36;;;;;;;2.67;1.83;;;15.40;63.90;;;;;;6120099;29;20047;-82
2021/04/30 09:00:38;;;;;;;2.05;1.20;;;15.40;64.20;;;;;;6114961;29;20443;-82
2021/04/30 09:03:39;;;;;;;4.13;1.80;;;15.40;64.20;;;;;;6130960;29;20032;-83
2021/04/30 09:06:42;;;;;;;3.03;1.13;;;15.50;64.00;;;;;;6117110;29;20042;-81
2021/04/30 09:10:04;;;;;;;2.30;1.30;;;15.50;64.00;;;;;;6116152;29;20063;-83
2021/04/30 09:13:23;;;;;;;3.63;1.45;;;15.40;64.10;;;;;;6122416;29;20485;-82
2021/04/30 09:16:24;;;;;;;8.02;1.70;;;15.20;64.90;;;;;;6104548;29;20032;-82
2021/04/30 09:19:59;;;;;;;5.30;2.03;;;15.10;65.30;;;;;;6124282;29;20028;-83
2021/04/30 09:23:02;;;;;;;2.80;1.58;;;15.10;65.50;;;;;;6126610;29;20031;-83
2021/04/30 09:26:31;;;;;;;3.25;1.55;;;15.10;65.50;;;;;;6125092;29;20032;-82
2021/04/30 09:29:34;;;;;;;5.40;1.35;;;15.10;65.60;;;;;;6125606;29;20070;-81
2021/04/30 09:32:35;;;;;;;4.78;1.55;;;15.20;65.70;;;;;;6128307;29;20415;-84
2021/04/30 09:35:42;;;;;;;1.50;1.20;;;15.40;65.40;;;;;;6113600;29;20035;-84
2021/04/30 09:38:44;;;;;;;6.50;1.27;;;15.50;64.50;;;;;;6097520;29;20039;-83
2021/04/30 09:42:08;;;;;;;9.55;1.50;;;15.60;64.10;;;;;;6113211;29;20070;-83
2021/04/30 09:45:30;;;;;;;1.80;1.05;;;15.70;63.40;;;;;;6122682;29;20059;-83
2021/04/30 09:48:53;;;;;;;3.08;0.80;;;15.80;62.80;;;;;;6126218;29;20431;-84
2021/04/30 09:51:57;;;;;;;1.30;0.95;;;15.90;62.40;;;;;;6111946;29;20062;-83
2021/04/30 09:55:03;;;;;;;1.65;0.95;;;16.00;61.70;;;;;;6100466;29;20032;-84
2021/04/30 09:58:43;;;;;;;0.60;0.60;;;16.10;61.60;;;;;;6135048;29;20039;-83
2021/04/30 10:01:44;;;;;;;;;;;16.10;61.20;;;;;;6110326;29;20054;-82
2021/04/30 10:04:49;;;;;;;4.00;0.85;;;16.20;60.90;;;;;;6116441;29;19911;-83
2021/04/30 10:07:51;;;;;;;0.95;0.70;;;16.30;60.60;;;;;;6129333;29;20123;-83
2021/04/30 10:10:52;;;;;;;2.75;1.13;;;16.20;60.10;;;;;;6100825;29;20367;-84
2021/04/30 10:13:54;;;;;;;1.73;0.80;;;16.20;60.30;;;;;;6129975;29;20102;-83
2021/04/30 10:16:56;;;;;;;1.00;0.70;;;16.30;60.40;;;;;;6109998;29;20031;-82
2021/04/30 10:20:00;;;;;;;1.75;0.65;;;16.30;60.20;;;;;;6130079;29;20111;-84
2021/04/30 10:23:07;;;;;;;1.75;0.80;;;16.30;60.00;;;;;;6119866;29;20041;-86
2021/04/30 10:26:08;;;;;;;3.47;0.85;;;16.30;60.10;;;;;;6145801;29;20102;-86
2021/04/30 10:29:16;;;;;;;3.67;1.08;;;16.30;60.00;;;;;;6120676;29;20036;-84
2021/04/30 10:32:20;;;;;;;;;;;16.20;60.20;;;;;;6137810;29;20035;-84
2021/04/30 10:35:56;;;;;;;1.30;1.00;;;16.20;60.70;;;;;;6136815;29;19911;-84
2021/04/30 10:39:01;;;;;;;3.75;1.10;;;16.20;61.50;;;;;;6138995;29;20371;-85
2021/04/30 10:42:10;;;;;;;2.90;0.60;;;16.10;60.60;;;;;;6129714;29;20086;-84
2021/04/30 10:45:17;;;;;;;0.68;0.50;;;16.10;61.00;;;;;;6102991;29;20039;-85
2021/04/30 10:48:18;;;;;;;0.88;0.68;;;16.00;61.10;;;;;;6116585;29;20463;-83
2021/04/30 10:51:19;;;;;;;4.18;1.98;;;15.90;61.70;;;;;;6116845;29;20027;-84
2021/04/30 10:54:28;;;;;;;1.17;0.70;;;15.90;62.20;;;;;;6117718;29;20325;-83
2021/04/30 10:57:46;;;;;;;1.55;0.60;;;15.90;62.60;;;;;;6117762;29;20052;-85
2021/04/30 11:00:48;;;;;;;3.03;0.73;;;16.00;62.30;;;;;;6132630;29;20051;-88
2021/04/30 11:04:11;;;;;;;7.80;0.80;;;16.10;62.10;;;;;;6119656;29;20036;-81
2021/04/30 11:07:15;;;;;;;0.82;0.40;;;16.20;61.80;;;;;;6100410;29;20023;-83
2021/04/30 11:10:22;;;;;;;1.42;0.70;;;16.10;61.10;;;;;;6095453;29;20039;-84
2021/04/30 11:13:24;;;;;;;1.85;0.60;;;16.30;61.10;;;;;;6116079;29;20086;-85
2021/04/30 11:16:40;;;;;;;9.43;0.80;;;16.30;61.20;;;;;;6116283;29;20345;-84
2021/04/30 11:19:45;;;;;;;4.18;0.55;;;16.30;61.30;;;;;;6117254;29;20055;-83
2021/04/30 11:23:12;;;;;;;2.08;0.55;;;16.30;61.20;;;;;;6118232;29;20069;-85
2021/04/30 11:26:17;;;;;;;2.10;0.60;;;16.30;61.20;;;;;;6133696;29;20135;-84
2021/04/30 11:29:29;;;;;;;1.30;0.70;;;16.30;61.10;;;;;;6116672;29;20066;-84
2021/04/30 11:32:30;;;;;;;1.85;0.90;;;16.20;61.30;;;;;;6115591;29;20027;-82
2021/04/30 11:35:32;;;;;;;1.38;0.55;;;16.20;61.70;;;;;;6113122;29;20030;-81
2021/04/30 11:38:50;;;;;;;1.42;0.60;;;16.20;61.80;;;;;;6131226;29;20028;-81
2021/04/30 11:41:55;;;;;;;0.95;0.50;;;16.20;61.90;;;;;;6109451;29;20364;-82
2021/04/30 11:44:58;;;;;;;1.02;0.57;;;16.20;61.90;;;;;;6114583;29;20039;-83
2021/04/30 11:48:01;;;;;;;3.10;0.90;;;16.30;62.00;;;;;;6114862;29;20439;-82
2021/04/30 11:51:08;;;;;;;2.53;0.70;;;16.30;61.90;;;;;;6115542;29;20031;-80
2021/04/30 11:54:10;;;;;;;0.88;0.65;;;16.40;61.90;;;;;;6131183;29;20419;-82
2021/04/30 11:57:13;;;;;;;10.13;1.50;;;16.40;61.60;;;;;;6098575;29;20083;-80
2021/04/30 12:00:30;;;;;;;1.67;0.75;;;16.30;61.60;;;;;;6113938;29;20035;-80
2021/04/30 12:03:48;;;;;;;5.45;1.05;;;16.30;61.70;;;;;;6114537;29;20042;-80
2021/04/30 12:06:49;;;;;;;1.83;0.73;;;16.30;61.80;;;;;;6104088;29;20046;-80
2021/04/30 12:09:52;;;;;;;4.53;1.08;;;16.30;61.70;;;;;;6114058;29;20063;-80
2021/04/30 12:12:55;;;;;;;1.17;0.63;;;16.30;61.80;;;;;;6112861;29;20063;-82
2021/04/30 12:15:56;;;;;;;0.85;0.57;;;16.30;62.00;;;;;;6097363;29;20035;-83
2021/04/30 12:18:58;;;;;;;1.10;0.50;;;16.30;62.10;;;;;;6113231;29;20419;-84
2021/04/30 12:22:17;;;;;;;0.68;0.63;;;16.20;62.20;;;;;;6114009;29;20032;-84
2021/04/30 12:25:31;;;;;;;1.27;0.75;;;16.20;62.50;;;;;;6117818;29;20050;-82
2021/04/30 12:28:35;;;;;;;1.05;0.60;;;16.20;62.50;;;;;;6124049;29;20086;-82
2021/04/30 12:31:39;;;;;;;1.15;0.47;;;16.10;62.30;;;;;;6123168;29;20046;-82
2021/04/30 12:34:40;;;;;;;0.80;0.60;;;16.10;62.60;;;;;;6122692;29;20034;-81
2021/04/30 12:37:43;;;;;;;2.20;1.00;;;16.10;62.60;;;;;;6134489;29;20023;-82
2021/04/30 12:40:47;;;;;;;1.08;0.38;;;16.00;62.80;;;;;;6131894;29;20036;-83
2021/04/30 12:43:49;;;;;;;1.58;0.70;;;16.00;63.00;;;;;;6114724;29;20079;-82
2021/04/30 12:46:53;;;;;;;1.08;0.50;;;16.00;63.10;;;;;;6126897;29;20395;-82
2021/04/30 12:49:58;;;;;;;2.72;0.98;;;16.00;63.40;;;;;;6112932;29;20035;-81
2021/04/30 12:52:59;;;;;;;2.42;0.73;;;15.80;63.60;;;;;;6112823;29;20032;-80
2021/04/30 12:56:00;;;;;;;5.53;0.60;;;15.90;63.80;;;;;;6112739;29;20151;-84
2021/04/30 12:59:15;;;;;;;0.32;0.32;;;16.00;63.80;;;;;;6095681;29;20044;-80
2021/04/30 13:02:16;;;;;;;1.05;0.70;;;15.90;63.90;;;;;;6090738;29;20146;-82
2021/04/30 13:05:20;;;;;;;2.60;1.13;;;15.80;64.00;;;;;;6069972;29;20032;-80
2021/04/30 13:08:21;;;;;;;1.33;0.63;;;15.70;64.10;;;;;;6091353;29;20342;-80
2021/04/30 13:11:23;;;;;;;5.40;0.60;;;15.70;64.30;;;;;;6071875;29;20078;-80
2021/04/30 13:14:24;;;;;;;1.80;1.00;;;15.70;64.60;;;;;;6107663;29;20036;-81
2021/04/30 13:17:30;;;;;;;0.50;0.40;;;15.70;64.80;;;;;;6086009;29;20123;-82
2021/04/30 13:20:32;;;;;;;1.40;0.60;;;15.70;64.80;;;;;;6090761;29;20021;-81
2021/04/30 13:23:38;;;;;;;0.80;0.50;;;15.60;64.80;;;;;;6093828;29;20039;-81
2021/04/30 13:26:40;;;;;;;1.17;0.50;;;15.60;65.00;;;;;;6113746;29;20031;-82
2021/04/30 13:29:43;;;;;;;0.52;0.50;;;15.50;64.90;;;;;;6101718;29;20361;-80
2021/04/30 13:32:44;;;;;;;0.75;0.50;;;15.50;65.00;;;;;;6086829;29;20042;-81
2021/04/30 13:35:47;;;;;;;1.10;0.63;;;15.50;65.50;;;;;;6110096;29;20460;-81
2021/04/30 13:38:48;;;;;;;3.05;0.50;;;15.50;65.60;;;;;;6104511;29;20420;-81
2021/04/30 13:41:50;;;;;;;1.00;0.55;;;15.50;65.70;;;;;;6084337;29;20033;-81
2021/04/30 13:45:00;;;;;;;0.73;0.63;;;15.70;65.70;;;;;;6105488;29;20062;-81
2021/04/30 13:48:02;;;;;;;2.20;0.68;;;15.80;65.50;;;;;;6106795;29;20031;-82
2021/04/30 13:51:03;;;;;;;0.68;0.40;;;15.90;65.30;;;;;;6097814;29;20028;-80
2021/04/30 13:54:05;;;;;;;1.38;0.60;;;16.00;65.10;;;;;;6086750;29;20457;-81
2021/04/30 13:57:11;;;;;;;0.80;0.60;;;16.10;65.00;;;;;;6105306;29;20028;-81
2021/04/30 14:00:15;;;;;;;0.60;0.52;;;16.30;64.70;;;;;;6102732;29;20048;-81
2021/04/30 14:03:20;;;;;;;1.70;0.70;;;16.30;64.30;;;;;;6108469;29;20048;-81
2021/04/30 14:06:24;;;;;;;1.33;0.73;;;16.50;64.20;;;;;;6109298;29;20056;-80
2021/04/30 14:09:25;;;;;;;0.22;0.20;;;16.60;64.00;;;;;;6106055;29;20036;-81
2021/04/30 14:12:27;;;;;;;1.48;0.50;;;16.70;63.50;;;;;;6086694;29;20294;-80
2021/04/30 14:15:31;;;;;;;0.70;0.60;;;16.90;63.00;;;;;;6086117;29;20029;-81
2021/04/30 14:18:32;;;;;;;1.38;0.55;;;16.90;62.50;;;;;;6088862;29;20029;-79
2021/04/30 14:21:34;;;;;;;0.57;0.47;;;17.00;62.10;;;;;;6096481;29;20504;-81
2021/04/30 14:24:37;;;;;;;1.92;0.50;;;17.00;61.60;;;;;;6109639;29;20493;-80
2021/04/30 14:27:39;;;;;;;0.90;0.60;;;17.00;61.30;;;;;;6087553;29;20120;-80
2021/04/30 14:30:41;;;;;;;0.30;0.30;;;17.00;61.10;;;;;;6086871;29;20032;-81
2021/04/30 14:33:42;;;;;;;0.40;0.40;;;17.10;61.00;;;;;;6086255;29;20037;-80
2021/04/30 14:36:44;;;;;;;0.85;0.40;;;17.20;60.80;;;;;;6086453;29;20036;-80
2021/04/30 14:39:45;;;;;;;0.88;0.63;;;17.20;60.50;;;;;;6086258;29;20108;-81
2021/04/30 14:42:46;;;;;;;2.65;1.08;;;17.30;60.50;;;;;;6081893;29;20136;-81
2021/04/30 14:45:50;;;;;;;0.73;0.60;;;17.30;60.50;;;;;;6071140;29;20041;-81
2021/04/30 14:48:54;;;;;;;3.08;0.80;;;17.30;60.50;;;;;;6090825;29;20040;-80
2021/04/30 14:51:56;;;;;;;3.45;1.20;;;17.30;60.30;;;;;;6092842;29;20032;-79
2021/04/30 14:54:57;;;;;;;4.75;1.25;;;17.40;60.10;;;;;;6089939;29;20492;-82
2021/04/30 14:57:58;;;;;;;2.30;1.10;;;17.40;60.00;;;;;;6100694;29;20048;-81
2021/04/30 15:01:01;;;;;;;2.45;0.90;;;17.40;60.00;;;;;;6118430;29;20375;-81
2021/04/30 15:04:02;;;;;;;6.30;1.88;;;17.50;60.10;;;;;;6101936;29;20050;-81
2021/04/30 15:07:04;;;;;;;6.72;2.05;;;17.60;59.90;;;;;;6128745;29;20028;-79
2021/04/30 15:10:05;;;;;;;11.65;2.45;;;17.60;59.80;;;;;;6114832;29;20149;-80
2021/04/30 15:13:07;;;;;;;1.58;1.00;;;17.80;59.70;;;;;;6115988;29;20442;-81
2021/04/30 15:16:09;;;;;;;3.90;1.17;;;17.90;59.30;;;;;;6100253;29;20149;-82
2021/04/30 15:19:11;;;;;;;1.67;0.95;;;18.00;59.10;;;;;;6127837;29;20027;-83
2021/04/30 15:22:12;;;;;;;2.03;0.90;;;18.10;58.90;;;;;;6115630;29;20459;-83
2021/04/30 15:25:13;;;;;;;3.92;0.80;;;18.10;58.70;;;;;;6101912;29;20047;-83
2021/04/30 15:28:15;;;;;;;3.78;0.65;;;18.00;58.70;;;;;;6132849;29;20032;-81
2021/04/30 15:31:16;;;;;;;1.30;1.00;;;17.90;58.70;;;;;;6118394;29;20297;-81
2021/04/30 15:34:17;;;;;;;1.27;0.98;;;17.90;58.80;;;;;;6102348;29;20046;-82
2021/04/30 15:37:19;;;;;;;0.82;0.70;;;17.90;58.90;;;;;;6131375;29;20028;-82
2021/04/30 15:40:22;;;;;;;1.00;0.82;;;17.90;58.90;;;;;;6113982;29;20028;-84
2021/04/30 15:43:24;;;;;;;5.13;1.13;;;17.90;59.00;;;;;;6114149;29;20043;-81
2021/04/30 15:46:27;;;;;;;1.10;0.70;;;17.90;59.10;;;;;;6114722;29;20032;-80
2021/04/30 15:49:29;;;;;;;2.15;1.00;;;17.80;59.10;;;;;;6110953;29;20031;-80
2021/04/30 15:52:40;;;;;;;1.42;1.00;;;17.70;59.00;;;;;;6122702;29;20530;-83
2021/04/30 15:55:41;;;;;;;1.67;1.00;;;17.60;59.30;;;;;;6133775;29;20458;-81
2021/04/30 15:58:42;;;;;;;2.33;0.88;;;17.50;59.30;;;;;;6132551;29;20063;-82